Time;durP1;ratioP1;P1;durP2;ratioP2;P2;SDS_P1;SDS_P2;PMS_P1;PMS_P2;Temp;Humidity;BMP_temperature;BMP_pressure;BME280_temperature;BME280_humidity;BME280_pressure;Samples;Min_cycle;Max_cycle;Signal;HPM_P1;HPM_P2
2022/07/16 00:03:09;;;;;;;0.00;0.00;;;17.30;99.90;;;;;;4943112;28;20607;-74
2022/07/16 00:05:37;;;;;;;0.00;0.00;;;17.30;99.90;;;;;;4943451;29;20527;-73
2022/07/16 00:08:05;;;;;;;0.00;0.00;;;17.30;99.90;;;;;;4943973;28;20536;-72
2022/07/16 00:10:33;;;;;;;0.00;0.00;;;17.30;99.90;;;;;;4943940;29;20737;-74
2022/07/16 00:13:02;;;;;;;0.00;0.00;;;17.30;99.90;;;;;;4943253;29;20494;-71
2022/07/16 00:15:30;;;;;;;0.00;0.00;;;17.40;99.90;;;;;;4943329;29;20686;-72
2022/07/16 00:20:41;;;;;;;0.00;0.00;;;17.30;99.90;;;;;;4942777;29;20446;-73
2022/07/16 00:23:09;;;;;;;0.00;0.00;;;17.30;99.90;;;;;;4943507;29;20448;-73
2022/07/16 00:25:37;;;;;;;0.00;0.00;;;17.20;99.90;;;;;;4943721;29;20916;-73
2022/07/16 00:28:05;;;;;;;0.00;0.00;;;17.20;99.90;;;;;;4943639;28;20484;-73
2022/07/16 00:30:33;;;;;;;0.00;0.00;;;17.10;99.90;;;;;;4943333;29;20746;-73
2022/07/16 00:33:01;;;;;;;0.00;0.00;;;16.90;99.90;;;;;;4946878;28;20444;-73
2022/07/16 00:35:29;;;;;;;0.00;0.00;;;16.80;99.90;;;;;;4954082;29;20457;-73
2022/07/16 00:37:58;;;;;;;0.00;0.00;;;16.80;99.90;;;;;;4943775;28;20508;-73
2022/07/16 00:40:25;;;;;;;0.00;0.00;;;16.80;99.90;;;;;;4942734;29;20444;-73
2022/07/16 00:42:53;;;;;;;0.00;0.00;;;16.70;99.90;;;;;;4943244;29;20447;-73
2022/07/16 00:45:21;;;;;;;0.00;0.00;;;16.70;99.90;;;;;;4942401;29;20456;-73
2022/07/16 00:47:49;;;;;;;0.00;0.00;;;16.60;99.90;;;;;;4943135;28;20484;-73
2022/07/16 00:50:17;;;;;;;0.00;0.00;;;16.50;99.90;;;;;;4942997;29;20452;-73
2022/07/16 00:52:45;;;;;;;0.00;0.00;;;16.50;99.90;;;;;;4942168;29;20830;-73
2022/07/16 00:55:14;;;;;;;0.00;0.00;;;16.30;99.90;;;;;;4942120;29;20498;-73
2022/07/16 00:57:42;;;;;;;0.00;0.00;;;16.20;99.90;;;;;;4942417;28;20461;-73
2022/07/16 01:00:21;;;;;;;0.00;0.00;;;16.10;99.90;;;;;;4943127;29;20453;-74
2022/07/16 01:03:00;;;;;;;0.00;0.00;;;16.10;99.90;;;;;;4943246;29;20711;-74
2022/07/16 01:05:30;;;;;;;0.00;0.00;;;16.10;99.90;;;;;;4943197;29;20451;-74
2022/07/16 01:07:59;;;;;;;0.00;0.00;;;16.10;99.90;;;;;;4942588;28;20488;-74
2022/07/16 01:10:28;;;;;;;0.00;0.00;;;16.00;99.90;;;;;;4942601;29;20726;-74
2022/07/16 01:12:59;;;;;;;0.00;0.00;;;16.10;99.90;;;;;;4942802;29;20557;-73
2022/07/16 01:15:27;;;;;;;0.00;0.00;;;16.10;99.90;;;;;;4943205;29;20898;-73
2022/07/16 01:17:55;;;;;;;0.00;0.00;;;16.10;99.90;;;;;;4941711;28;20457;-73
2022/07/16 01:20:23;;;;;;;0.00;0.00;;;16.10;99.90;;;;;;4942176;29;21168;-73
2022/07/16 01:22:54;;;;;;;0.00;0.00;;;16.10;99.90;;;;;;4941647;29;20445;-73
2022/07/16 01:25:23;;;;;;;0.00;0.00;;;16.10;99.90;;;;;;4941523;29;20442;-74
2022/07/16 01:27:51;;;;;;;0.00;0.00;;;16.10;99.90;;;;;;4941799;28;20492;-72
2022/07/16 01:30:19;;;;;;;0.00;0.00;;;16.10;99.90;;;;;;4941842;29;20481;-75
2022/07/16 01:32:47;;;;;;;0.00;0.00;;;16.20;99.90;;;;;;4941568;29;20666;-74
2022/07/16 01:35:15;;;;;;;0.00;0.00;;;16.20;99.90;;;;;;4942475;29;20957;-73
2022/07/16 01:37:42;;;;;;;0.00;0.00;;;16.10;99.90;;;;;;4942740;28;20472;-73
2022/07/16 01:40:11;;;;;;;0.00;0.00;;;16.10;99.90;;;;;;4942402;29;20607;-73
2022/07/16 01:42:43;;;;;;;0.00;0.00;;;16.00;99.90;;;;;;4942630;28;20690;-73
2022/07/16 01:45:11;;;;;;;0.00;0.00;;;16.00;99.90;;;;;;4941753;28;20767;-73
2022/07/16 01:51:19;;;;;;;0.00;0.00;;;15.80;99.90;;;;;;4948584;28;20860;-72
2022/07/16 01:53:47;;;;;;;0.00;0.00;;;15.80;99.90;;;;;;4941733;29;21040;-73
2022/07/16 01:56:15;;;;;;;0.00;0.00;;;15.70;99.90;;;;;;4940831;29;20508;-73
2022/07/16 01:58:44;;;;;;;0.00;0.00;;;15.70;99.90;;;;;;4940990;28;20544;-73
2022/07/16 02:01:12;;;;;;;0.00;0.00;;;15.70;99.90;;;;;;4940889;28;20460;-73
2022/07/16 02:03:39;;;;;;;0.00;0.00;;;15.80;99.90;;;;;;4941314;29;20548;-73
2022/07/16 02:06:07;;;;;;;0.00;0.00;;;15.80;99.90;;;;;;4940772;29;20481;-73
2022/07/16 02:08:35;;;;;;;0.00;0.00;;;15.80;99.90;;;;;;4940652;28;20503;-72
2022/07/16 02:11:03;;;;;;;0.00;0.00;;;15.80;99.90;;;;;;4940806;29;20456;-73
2022/07/16 02:13:31;;;;;;;0.00;0.00;;;15.90;99.90;;;;;;4940827;29;20459;-73
2022/07/16 02:16:00;;;;;;;0.00;0.00;;;15.80;99.90;;;;;;4940212;29;20457;-73
2022/07/16 02:21:41;;;;;;;0.00;0.00;;;15.70;99.90;;;;;;5614839;23;20279;-90
2022/07/16 02:24:10;;;;;;;0.00;0.00;;;15.70;99.90;;;;;;4946152;29;20527;-92
2022/07/16 02:26:38;;;;;;;0.00;0.00;;;15.60;99.90;;;;;;4941091;29;20533;-91
2022/07/16 02:29:06;;;;;;;0.00;0.00;;;15.60;99.90;;;;;;4932653;29;20549;-91
2022/07/16 02:31:41;;;;;;;0.00;0.00;;;15.60;99.90;;;;;;4929073;29;21026;-92
2022/07/16 02:34:09;;;;;;;0.00;0.00;;;15.70;99.90;;;;;;4928883;29;20497;-91
2022/07/16 02:36:37;;;;;;;0.00;0.00;;;15.80;99.90;;;;;;4929834;29;20829;-91
2022/07/16 02:39:05;;;;;;;0.00;0.00;;;15.80;99.90;;;;;;4928445;29;20442;-91
2022/07/16 02:41:36;;;;;;;0.00;0.00;;;15.80;99.90;;;;;;4929293;29;20471;-91
2022/07/16 02:44:05;;;;;;;0.00;0.00;;;15.70;99.90;;;;;;4929376;29;20540;-90
2022/07/16 02:46:33;;;;;;;0.00;0.00;;;15.70;99.90;;;;;;4929588;29;20548;-92
2022/07/16 02:49:03;;;;;;;0.00;0.00;;;15.80;99.90;;;;;;4945915;28;20489;-89
2022/07/16 02:51:31;;;;;;;0.00;0.00;;;15.90;99.90;;;;;;4933131;28;20453;-90
2022/07/16 02:53:59;;;;;;;0.00;0.00;;;15.90;99.90;;;;;;4932712;29;20549;-90
2022/07/16 02:56:28;;;;;;;0.00;0.00;;;16.00;99.90;;;;;;4930285;29;20457;-92
2022/07/16 02:58:56;;;;;;;0.00;0.00;;;16.00;99.90;;;;;;4928052;29;20892;-92
2022/07/16 03:01:24;;;;;;;0.00;0.00;;;16.00;99.90;;;;;;4927505;29;20687;-90
2022/07/16 03:03:52;;;;;;;0.00;0.00;;;16.00;99.90;;;;;;4929352;29;20796;-90
2022/07/16 03:06:21;;;;;;;0.00;0.00;;;15.90;99.90;;;;;;4928617;29;20461;-93
2022/07/16 03:08:50;;;;;;;0.00;0.00;;;15.90;99.90;;;;;;4928092;29;20482;-91
2022/07/16 03:11:18;;;;;;;0.00;0.00;;;16.00;99.90;;;;;;4928484;29;20468;-92
2022/07/16 03:13:46;;;;;;;0.00;0.00;;;15.90;99.90;;;;;;4928364;29;20481;-92
2022/07/16 03:16:14;;;;;;;0.00;0.00;;;16.00;99.90;;;;;;4929165;29;20866;-91
2022/07/16 03:18:42;;;;;;;0.00;0.00;;;15.90;99.90;;;;;;4929108;29;20930;-92
2022/07/16 03:21:10;;;;;;;0.00;0.00;;;15.90;99.90;;;;;;4930732;29;20456;-92
2022/07/16 03:23:40;;;;;;;0.00;0.00;;;15.90;99.90;;;;;;4930986;29;20552;-91
2022/07/16 03:26:08;;;;;;;0.00;0.00;;;15.80;99.90;;;;;;4928388;29;20441;-92
2022/07/16 03:28:37;;;;;;;0.00;0.00;;;15.70;99.90;;;;;;4929162;29;20484;-93
2022/07/16 03:31:05;;;;;;;0.00;0.00;;;15.70;99.90;;;;;;4929286;29;20442;-92
2022/07/16 03:33:33;;;;;;;0.00;0.00;;;15.60;99.90;;;;;;4929576;29;20473;-93
2022/07/16 03:36:02;;;;;;;0.00;0.00;;;15.50;99.90;;;;;;4929095;29;20485;-91
2022/07/16 03:41:20;;;;;;;0.00;0.00;;;15.40;99.90;;;;;;4929842;29;20512;-91
2022/07/16 03:43:48;;;;;;;0.00;0.00;;;15.40;99.90;;;;;;4932849;29;20553;-93
2022/07/16 03:46:27;;;;;;;0.00;0.00;;;15.30;99.90;;;;;;4933365;29;20705;-92
2022/07/16 03:48:59;;;;;;;0.00;0.00;;;15.30;99.90;;;;;;4948193;28;20572;-89
2022/07/16 03:51:27;;;;;;;0.00;0.00;;;15.20;99.90;;;;;;4935133;28;20816;-89
2022/07/16 03:53:55;;;;;;;0.00;0.00;;;15.20;99.90;;;;;;4930933;29;20508;-89
2022/07/16 03:56:25;;;;;;;0.00;0.00;;;15.20;99.90;;;;;;4930680;29;20802;-91
2022/07/16 03:58:53;;;;;;;0.00;0.00;;;15.20;99.90;;;;;;4933815;29;20530;-91
2022/07/16 04:01:21;;;;;;;0.00;0.00;;;15.20;99.90;;;;;;4934729;29;20545;-91
2022/07/16 04:03:49;;;;;;;0.00;0.00;;;15.20;99.90;;;;;;4929634;29;20561;-91
2022/07/16 04:06:17;;;;;;;0.00;0.00;;;15.30;99.90;;;;;;4929648;29;20870;-89
2022/07/16 04:08:46;;;;;;;0.00;0.00;;;15.40;99.90;;;;;;4931786;29;20778;-91
2022/07/16 04:11:14;;;;;;;0.00;0.00;;;15.50;99.90;;;;;;4933895;29;20461;-90
2022/07/16 04:13:43;;;;;;;0.00;0.00;;;15.50;99.90;;;;;;4933320;29;20473;-91
2022/07/16 04:16:12;;;;;;;0.00;0.00;;;15.60;99.90;;;;;;4934490;29;20470;-92
2022/07/16 04:18:40;;;;;;;0.00;0.00;;;15.60;99.90;;;;;;4936094;29;20453;-90
2022/07/16 04:21:08;;;;;;;0.00;0.00;;;15.60;99.90;;;;;;4933405;29;20473;-92
2022/07/16 04:23:36;;;;;;;0.00;0.00;;;15.60;99.90;;;;;;4936801;29;20511;-89
2022/07/16 04:26:05;;;;;;;0.00;0.00;;;15.60;99.90;;;;;;4934604;29;20476;-90
2022/07/16 04:28:33;;;;;;;0.00;0.00;;;15.60;99.90;;;;;;4935272;29;20813;-92
2022/07/16 04:31:02;;;;;;;0.00;0.00;;;15.50;99.90;;;;;;4934789;29;20829;-90
2022/07/16 04:33:30;;;;;;;0.00;0.00;;;15.50;99.90;;;;;;4935081;29;20517;-90
2022/07/16 04:35:58;;;;;;;0.00;0.00;;;15.40;99.90;;;;;;4935260;29;20472;-91
2022/07/16 04:38:26;;;;;;;0.00;0.00;;;15.40;99.90;;;;;;4934744;29;20500;-91
2022/07/16 04:40:54;;;;;;;0.00;0.00;;;15.40;99.90;;;;;;4935455;29;20446;-90
2022/07/16 04:43:22;;;;;;;0.00;0.00;;;15.30;99.90;;;;;;4936003;29;20458;-91
2022/07/16 04:45:51;;;;;;;0.00;0.00;;;15.40;99.90;;;;;;4936180;29;21111;-89
2022/07/16 04:48:20;;;;;;;0.00;0.00;;;15.40;99.90;;;;;;4942453;29;20461;-90
2022/07/16 04:50:48;;;;;;;0.00;0.00;;;15.40;99.90;;;;;;4945452;28;20741;-93
2022/07/16 04:53:16;;;;;;;0.00;0.00;;;15.40;99.90;;;;;;4934999;29;20712;-90
2022/07/16 04:55:44;;;;;;;0.00;0.00;;;15.50;99.90;;;;;;4934479;29;20442;-92
2022/07/16 04:58:12;;;;;;;0.00;0.00;;;15.70;99.90;;;;;;4934641;29;20472;-90
2022/07/16 05:00:40;;;;;;;0.00;0.00;;;15.90;99.90;;;;;;4933968;29;20458;-93
2022/07/16 05:03:09;;;;;;;0.00;0.00;;;16.10;99.90;;;;;;4934491;29;21003;-90
2022/07/16 05:05:39;;;;;;;0.00;0.00;;;16.20;99.90;;;;;;4934540;29;20857;-91
2022/07/16 05:08:09;;;;;;;0.00;0.00;;;16.30;99.90;;;;;;4935230;29;20453;-91
2022/07/16 05:10:37;;;;;;;0.00;0.00;;;16.40;99.90;;;;;;4934818;29;20485;-91
2022/07/16 05:13:07;;;;;;;0.00;0.00;;;16.50;99.90;;;;;;4934705;29;20740;-88
2022/07/16 05:15:35;;;;;;;0.00;0.00;;;16.60;99.90;;;;;;4936063;29;20461;-92
2022/07/16 05:18:04;;;;;;;0.00;0.00;;;16.60;99.90;;;;;;4934803;29;20497;-90
2022/07/16 05:20:32;;;;;;;0.00;0.00;;;16.60;99.90;;;;;;4935082;29;20469;-90
2022/07/16 05:23:02;;;;;;;0.00;0.00;;;16.60;99.90;;;;;;4935562;29;20589;-90
2022/07/16 05:25:30;;;;;;;0.00;0.00;;;16.60;99.90;;;;;;4935702;29;20477;-90
2022/07/16 05:27:58;;;;;;;0.00;0.00;;;16.70;99.90;;;;;;4935309;29;20497;-91
2022/07/16 05:30:28;;;;;;;0.00;0.00;;;16.70;99.90;;;;;;4935986;29;20492;-90
2022/07/16 05:32:56;;;;;;;0.00;0.00;;;16.70;99.90;;;;;;4937270;29;20462;-91
2022/07/16 05:35:24;;;;;;;0.00;0.00;;;16.70;99.90;;;;;;4941456;29;20480;-90
2022/07/16 05:37:52;;;;;;;0.00;0.00;;;16.60;99.90;;;;;;4942693;29;20441;-90
2022/07/16 05:40:22;;;;;;;0.00;0.00;;;16.50;99.90;;;;;;4941594;29;20482;-88
2022/07/16 05:42:50;;;;;;;0.00;0.00;;;16.40;99.90;;;;;;4938158;29;20804;-91
2022/07/16 05:45:19;;;;;;;0.00;0.00;;;16.30;99.90;;;;;;4936782;29;20477;-89
2022/07/16 05:47:47;;;;;;;0.00;0.00;;;16.30;99.90;;;;;;4937087;29;20532;-90
2022/07/16 05:50:16;;;;;;;0.00;0.00;;;16.30;99.90;;;;;;4953527;28;20552;-90
2022/07/16 05:52:46;;;;;;;0.00;0.00;;;16.30;99.90;;;;;;4945308;29;20530;-89
2022/07/16 05:55:15;;;;;;;0.00;0.00;;;16.40;99.90;;;;;;4950467;29;20465;-87
2022/07/16 05:57:45;;;;;;;0.00;0.00;;;16.40;99.90;;;;;;4950452;29;20449;-88
2022/07/16 06:00:14;;;;;;;0.00;0.00;;;16.30;99.90;;;;;;4947000;29;20622;-92
2022/07/16 06:02:43;;;;;;;0.00;0.00;;;16.30;99.90;;;;;;4945028;29;20586;-91
2022/07/16 06:05:12;;;;;;;0.00;0.00;;;16.40;99.90;;;;;;4948739;29;20486;-91
2022/07/16 06:07:41;;;;;;;0.00;0.00;;;16.40;99.90;;;;;;4942521;29;20726;-92
2022/07/16 06:10:10;;;;;;;0.00;0.00;;;16.50;99.90;;;;;;4940520;29;20989;-92
2022/07/16 06:12:38;;;;;;;0.00;0.00;;;16.50;99.90;;;;;;4939967;29;20541;-90
2022/07/16 06:15:10;;;;;;;0.00;0.00;;;16.50;99.90;;;;;;4947166;29;20454;-89
2022/07/16 06:17:39;;;;;;;0.00;0.00;;;16.50;99.90;;;;;;4948817;29;20537;-91
2022/07/16 06:20:09;;;;;;;0.00;0.00;;;16.60;99.90;;;;;;4947028;29;20442;-89
2022/07/16 06:22:38;;;;;;;0.00;0.00;;;16.50;99.90;;;;;;4944409;29;21018;-90
2022/07/16 06:25:12;;;;;;;0.00;0.00;;;16.30;99.90;;;;;;4946812;29;20441;-90
2022/07/16 06:27:44;;;;;;;0.00;0.00;;;16.10;99.90;;;;;;4946984;29;20449;-89
2022/07/16 06:30:15;;;;;;;0.00;0.00;;;16.10;99.90;;;;;;4942018;29;20488;-90
2022/07/16 06:32:45;;;;;;;0.00;0.00;;;16.00;99.90;;;;;;4938680;29;21009;-92
2022/07/16 06:35:14;;;;;;;0.00;0.00;;;16.10;99.90;;;;;;4938130;29;20461;-92
2022/07/16 06:37:42;;;;;;;0.00;0.00;;;16.30;99.90;;;;;;4936826;29;20473;-91
2022/07/16 06:40:13;;;;;;;0.00;0.00;;;16.50;99.90;;;;;;4936652;29;20457;-89
2022/07/16 06:42:41;;;;;;;0.00;0.00;;;16.60;99.90;;;;;;4937126;29;20477;-91
2022/07/16 06:45:11;;;;;;;0.00;0.00;;;16.70;99.90;;;;;;4936289;29;20490;-90
2022/07/16 06:47:40;;;;;;;0.00;0.00;;;16.70;99.90;;;;;;4937370;29;20529;-92
2022/07/16 06:50:10;;;;;;;0.00;0.00;;;16.70;99.90;;;;;;4945438;29;20470;-90
2022/07/16 06:52:39;;;;;;;0.00;0.00;;;16.70;99.90;;;;;;4942159;29;20480;-92
2022/07/16 06:55:08;;;;;;;0.00;0.00;;;16.60;99.90;;;;;;4937066;29;20453;-93
2022/07/16 06:57:36;;;;;;;0.00;0.00;;;16.40;99.90;;;;;;4937669;29;20537;-91
2022/07/16 07:00:06;;;;;;;0.00;0.00;;;16.30;99.90;;;;;;4937948;29;20454;-91
2022/07/16 07:02:35;;;;;;;0.00;0.00;;;16.30;99.90;;;;;;4937118;29;20481;-91
2022/07/16 07:05:09;;;;;;;0.00;0.00;;;16.40;99.90;;;;;;4939352;29;20518;-92
2022/07/16 07:07:37;;;;;;;0.00;0.00;;;16.60;99.90;;;;;;4945479;29;20445;-90
2022/07/16 07:10:06;;;;;;;0.00;0.00;;;16.90;99.90;;;;;;4938938;29;20491;-91
2022/07/16 07:12:35;;;;;;;0.00;0.00;;;17.00;99.90;;;;;;4937126;29;20485;-90
2022/07/16 07:15:04;;;;;;;0.00;0.00;;;17.00;99.90;;;;;;4936838;29;20610;-90
2022/07/16 07:17:32;;;;;;;0.00;0.00;;;17.10;99.90;;;;;;4937760;29;20508;-91
2022/07/16 07:20:01;;;;;;;0.00;0.00;;;17.10;99.90;;;;;;4937642;29;20836;-93
2022/07/16 07:22:34;;;;;;;0.00;0.00;;;17.20;99.90;;;;;;4937252;29;20497;-91
2022/07/16 07:25:03;;;;;;;0.00;0.00;;;17.50;99.90;;;;;;4937521;29;20479;-91
2022/07/16 07:27:31;;;;;;;0.00;0.00;;;17.60;99.90;;;;;;4936796;29;20510;-92
2022/07/16 07:30:01;;;;;;;0.00;0.00;;;17.60;99.90;;;;;;4939081;29;20781;-90
2022/07/16 07:32:30;;;;;;;0.00;0.00;;;17.60;99.90;;;;;;4937633;29;20515;-91
2022/07/16 07:34:58;;;;;;;0.00;0.00;;;17.60;99.90;;;;;;4939503;29;20457;-91
2022/07/16 07:37:26;;;;;;;0.00;0.00;;;17.60;99.90;;;;;;4939768;29;20470;-90
2022/07/16 07:39:56;;;;;;;0.00;0.00;;;17.60;99.90;;;;;;4936184;29;20462;-91
2022/07/16 07:42:26;;;;;;;0.00;0.00;;;17.60;99.90;;;;;;4938055;29;20524;-92
2022/07/16 07:44:55;;;;;;;0.00;0.00;;;17.60;99.90;;;;;;4940915;29;20509;-91
2022/07/16 07:47:23;;;;;;;0.00;0.00;;;17.50;99.90;;;;;;4942952;29;20469;-92
2022/07/16 07:49:54;;;;;;;0.00;0.00;;;17.40;99.90;;;;;;4948382;28;20444;-91
2022/07/16 07:52:22;;;;;;;0.00;0.00;;;17.20;99.90;;;;;;4952980;28;20523;-91
2022/07/16 07:54:51;;;;;;;0.00;0.00;;;17.10;99.90;;;;;;4940705;29;20458;-91
2022/07/16 07:57:21;;;;;;;0.00;0.00;;;17.20;99.90;;;;;;4940006;29;20877;-91
2022/07/16 07:59:49;;;;;;;0.00;0.00;;;17.30;99.90;;;;;;4940497;29;20755;-92
2022/07/16 08:02:27;;;;;;;0.00;0.00;;;17.60;99.90;;;;;;4941851;29;20479;-91
2022/07/16 08:04:55;;;;;;;0.00;0.00;;;17.80;99.90;;;;;;4943554;29;20484;-91
2022/07/16 08:07:26;;;;;;;0.00;0.00;;;17.90;99.90;;;;;;4942572;29;20449;-92
2022/07/16 08:09:58;;;;;;;0.00;0.00;;;17.90;99.90;;;;;;4939874;29;20880;-93
2022/07/16 08:12:29;;;;;;;0.00;0.00;;;17.90;99.90;;;;;;4939869;29;20489;-91
2022/07/16 08:14:57;;;;;;;0.00;0.00;;;17.90;99.90;;;;;;4941651;29;20513;-91
2022/07/16 08:17:26;;;;;;;0.00;0.00;;;17.90;99.90;;;;;;4942694;29;20541;-91
2022/07/16 08:19:54;;;;;;;0.00;0.00;;;17.80;99.90;;;;;;4946020;29;20461;-92
2022/07/16 08:22:22;;;;;;;0.00;0.00;;;17.70;99.90;;;;;;4937990;29;20470;-92
2022/07/16 08:27:41;;;;;;;0.00;0.00;;;17.70;99.90;;;;;;4940357;29;20798;-92
2022/07/16 08:30:12;;;;;;;0.00;0.00;;;17.70;99.90;;;;;;4939629;29;20466;-93
2022/07/16 08:32:43;;;;;;;0.00;0.00;;;17.80;99.90;;;;;;4939967;29;20712;-92
2022/07/16 08:35:13;;;;;;;0.00;0.00;;;17.80;99.90;;;;;;4939494;29;20493;-91
2022/07/16 08:37:43;;;;;;;0.00;0.00;;;17.70;99.90;;;;;;4940647;29;20473;-91
2022/07/16 08:40:15;;;;;;;0.00;0.00;;;17.70;99.90;;;;;;4940876;29;21082;-91
2022/07/16 08:42:48;;;;;;;0.00;0.00;;;17.80;99.90;;;;;;4949580;29;20562;-91
2022/07/16 08:45:22;;;;;;;0.00;0.00;;;17.80;99.90;;;;;;4944528;29;20490;-91
2022/07/16 08:47:54;;;;;;;0.00;0.00;;;17.80;99.90;;;;;;4941267;29;20457;-93
2022/07/16 08:50:25;;;;;;;0.00;0.00;;;18.00;99.90;;;;;;4954603;28;20438;-92
2022/07/16 08:52:58;;;;;;;0.00;0.00;;;18.30;99.90;;;;;;4952380;28;20534;-92
2022/07/16 08:55:30;;;;;;;0.00;0.00;;;18.60;99.90;;;;;;4942656;29;20446;-91
2022/07/16 08:58:08;;;;;;;0.00;0.00;;;18.70;99.90;;;;;;4945279;29;20444;-91
2022/07/16 09:00:40;;;;;;;0.00;0.00;;;18.70;99.90;;;;;;4943806;29;20456;-93
2022/07/16 09:03:12;;;;;;;0.00;0.00;;;18.70;99.90;;;;;;4943517;29;20472;-92
2022/07/16 09:05:42;;;;;;;0.00;0.00;;;18.60;99.90;;;;;;4942561;29;20460;-91
2022/07/16 09:08:14;;;;;;;0.00;0.00;;;18.60;99.90;;;;;;4947398;29;20619;-90
2022/07/16 09:10:43;;;;;;;0.00;0.00;;;18.50;99.90;;;;;;4948953;29;20443;-89
2022/07/16 09:13:30;;;;;;;0.00;0.00;;;18.40;99.90;;;;;;4947805;29;20490;-90
2022/07/16 09:16:02;;;;;;;0.00;0.00;;;18.20;99.90;;;;;;4945494;28;20444;-91
2022/07/16 09:18:35;;;;;;;0.00;0.00;;;18.40;99.90;;;;;;4951822;29;20451;-91
2022/07/16 09:21:03;;;;;;;0.00;0.00;;;18.60;99.90;;;;;;4954914;28;20443;-92
2022/07/16 09:23:40;;;;;;;0.00;0.00;;;18.80;99.90;;;;;;4957135;28;20479;-89
2022/07/16 09:26:15;;;;;;;0.00;0.00;;;19.00;99.90;;;;;;4956405;28;20445;-91
2022/07/16 09:28:51;;;;;;;0.00;0.00;;;19.20;99.90;;;;;;4955068;28;20467;-90
2022/07/16 09:31:37;;;;;;;0.00;0.00;;;19.20;99.90;;;;;;4954876;28;20451;-90
2022/07/16 09:34:11;;;;;;;0.00;0.00;;;19.10;99.90;;;;;;4955246;28;20487;-91
2022/07/16 09:36:43;;;;;;;0.00;0.00;;;18.80;99.90;;;;;;4955804;28;20681;-89
2022/07/16 09:39:12;;;;;;;0.00;0.00;;;18.60;99.90;;;;;;4956164;28;20661;-89
2022/07/16 09:41:47;;;;;;;0.00;0.00;;;18.60;99.90;;;;;;4955179;28;20471;-92
2022/07/16 09:44:24;;;;;;;0.00;0.00;;;18.60;99.90;;;;;;4954646;28;20501;-90
2022/07/16 09:47:00;;;;;;;0.00;0.00;;;18.70;99.90;;;;;;4954484;28;20443;-90
2022/07/16 09:49:31;;;;;;;0.00;0.00;;;18.70;99.90;;;;;;4954548;28;20475;-91
2022/07/16 09:52:03;;;;;;;0.00;0.00;;;18.80;99.90;;;;;;4954653;28;20544;-90
2022/07/16 09:54:35;;;;;;;0.00;0.00;;;19.10;99.90;;;;;;4954434;28;20460;-90
2022/07/16 09:57:18;;;;;;;0.00;0.00;;;19.30;99.90;;;;;;4954595;28;20468;-90
2022/07/16 09:59:49;;;;;;;0.00;0.00;;;19.40;99.90;;;;;;4953005;28;20457;-92
2022/07/16 10:02:28;;;;;;;0.00;0.00;;;19.50;99.90;;;;;;4953243;28;20543;-88
2022/07/16 10:04:57;;;;;;;0.00;0.00;;;19.40;99.90;;;;;;4947525;29;20464;-90
2022/07/16 10:07:32;;;;;;;0.00;0.00;;;19.30;99.90;;;;;;4942889;29;20823;-89
2022/07/16 10:10:01;;;;;;;0.00;0.00;;;19.20;99.90;;;;;;4940034;29;20465;-90
2022/07/16 10:12:30;;;;;;;0.00;0.00;;;19.20;99.90;;;;;;4938034;29;20571;-90
2022/07/16 10:15:03;;;;;;;0.00;0.00;;;19.20;99.90;;;;;;4937887;29;20673;-92
2022/07/16 10:17:36;;;;;;;0.00;0.00;;;19.20;99.90;;;;;;4939777;29;20464;-91
2022/07/16 10:20:08;;;;;;;0.00;0.00;;;19.30;99.90;;;;;;4939870;29;20453;-90
2022/07/16 10:22:39;;;;;;;0.00;0.00;;;19.40;99.90;;;;;;4937935;29;20512;-91
2022/07/16 10:25:13;;;;;;;0.00;0.00;;;19.40;99.90;;;;;;4945913;29;20449;-90
2022/07/16 10:27:42;;;;;;;0.00;0.00;;;19.10;99.90;;;;;;4945437;29;20498;-91
2022/07/16 10:30:29;;;;;;;0.00;0.00;;;19.00;99.90;;;;;;4946381;29;20457;-90
2022/07/16 10:33:12;;;;;;;0.00;0.00;;;19.10;99.90;;;;;;4941928;29;20484;-88
2022/07/16 10:35:49;;;;;;;0.00;0.00;;;19.20;99.90;;;;;;4939853;29;20453;-91
2022/07/16 10:38:21;;;;;;;0.00;0.00;;;19.50;99.90;;;;;;4940632;29;20735;-90
2022/07/16 10:41:09;;;;;;;0.00;0.00;;;19.80;99.90;;;;;;4939751;29;20454;-91
2022/07/16 10:43:40;;;;;;;0.00;0.00;;;19.90;99.90;;;;;;4939567;29;20500;-91
2022/07/16 10:46:11;;;;;;;0.00;0.00;;;20.00;99.90;;;;;;4940033;29;20609;-92
2022/07/16 10:49:21;;;;;;;0.00;0.00;;;19.80;99.90;;;;;;4940210;29;20521;-92
2022/07/16 10:51:57;;;;;;;0.00;0.00;;;19.40;99.90;;;;;;4948089;28;20505;-91
2022/07/16 10:54:35;;;;;;;0.00;0.00;;;19.30;99.90;;;;;;4937848;29;20493;-92
2022/07/16 10:57:05;;;;;;;0.00;0.00;;;19.30;99.90;;;;;;4938833;29;20453;-88
2022/07/16 10:59:42;;;;;;;0.00;0.00;;;19.40;99.90;;;;;;4939850;29;20464;-91
2022/07/16 11:02:13;;;;;;;0.00;0.00;;;19.70;99.90;;;;;;4937460;29;20477;-92
2022/07/16 11:04:43;;;;;;;0.00;0.00;;;19.80;99.90;;;;;;4940412;29;20450;-91
2022/07/16 11:07:15;;;;;;;0.00;0.00;;;19.80;99.90;;;;;;4942522;29;20438;-89
2022/07/16 11:09:47;;;;;;;0.00;0.00;;;20.00;99.90;;;;;;4945630;29;20902;-92
2022/07/16 11:12:17;;;;;;;0.00;0.00;;;20.20;99.90;;;;;;4943272;29;20473;-91
2022/07/16 11:14:48;;;;;;;0.00;0.00;;;20.00;99.90;;;;;;4940312;29;20756;-92
2022/07/16 11:17:21;;;;;;;0.00;0.00;;;20.00;99.90;;;;;;4947526;29;20537;-90
2022/07/16 11:19:52;;;;;;;0.00;0.00;;;19.80;99.90;;;;;;4943057;29;20460;-92
2022/07/16 11:22:26;;;;;;;0.00;0.00;;;20.00;99.90;;;;;;4940798;29;20474;-92
2022/07/16 11:24:58;;;;;;;0.00;0.00;;;20.20;99.90;;;;;;4942939;29;20472;-92
2022/07/16 11:27:31;;;;;;;0.00;0.00;;;20.30;99.90;;;;;;4946137;29;20481;-88
2022/07/16 11:30:03;;;;;;;0.00;0.00;;;20.40;99.90;;;;;;4946270;29;20453;-92
2022/07/16 11:32:33;;;;;;;0.00;0.00;;;20.50;99.90;;;;;;4941659;29;20477;-91
2022/07/16 11:35:05;;;;;;;0.00;0.00;;;20.60;99.90;;;;;;4942316;29;20857;-92
2022/07/16 11:37:50;;;;;;;0.00;0.00;;;20.60;99.90;;;;;;4942539;29;20562;-92
2022/07/16 11:40:35;;;;;;;0.00;0.00;;;20.60;99.90;;;;;;4942950;29;20453;-92
2022/07/16 11:43:04;;;;;;;0.00;0.00;;;20.40;99.90;;;;;;4943758;29;21030;-92
2022/07/16 11:45:40;;;;;;;0.00;0.00;;;20.40;99.90;;;;;;4942346;29;20887;-92
2022/07/16 11:48:15;;;;;;;0.00;0.00;;;20.40;99.90;;;;;;4943921;29;20535;-89
2022/07/16 11:50:45;;;;;;;0.00;0.00;;;20.20;99.90;;;;;;4951732;28;20439;-92
2022/07/16 11:53:14;;;;;;;0.00;0.00;;;20.10;99.90;;;;;;4950285;28;20485;-89
2022/07/16 11:55:43;;;;;;;0.00;0.00;;;20.00;99.90;;;;;;4940061;29;20465;-90
2022/07/16 11:58:12;;;;;;;0.00;0.00;;;20.10;99.90;;;;;;4939050;29;20462;-90
2022/07/16 12:00:44;;;;;;;0.00;0.00;;;20.10;99.90;;;;;;4940044;29;20603;-93
2022/07/16 12:03:18;;;;;;;0.00;0.00;;;20.20;99.90;;;;;;4942204;29;20477;-91
2022/07/16 12:05:47;;;;;;;0.00;0.00;;;20.20;99.90;;;;;;4939909;29;20496;-90
2022/07/16 12:08:16;;;;;;;0.00;0.00;;;20.40;99.90;;;;;;4922615;29;20470;-89
2022/07/16 12:11:01;;;;;;;0.00;0.00;;;20.40;99.90;;;;;;4925418;29;20482;-91
2022/07/16 12:13:30;;;;;;;0.00;0.00;;;20.40;99.90;;;;;;4924262;29;20489;-93
2022/07/16 12:16:01;;;;;;;0.00;0.00;;;20.20;99.90;;;;;;4924416;29;20896;-90
2022/07/16 12:18:31;;;;;;;0.00;0.00;;;20.30;99.90;;;;;;4923742;29;20922;-91
2022/07/16 12:21:25;;;;;;;0.00;0.00;;;20.20;99.90;;;;;;4925985;29;20453;-94
2022/07/16 12:23:54;;;;;;;0.00;0.00;;;20.00;99.90;;;;;;4926304;29;20523;-92
2022/07/16 12:26:30;;;;;;;0.00;0.00;;;20.10;99.90;;;;;;4928112;29;20469;-92
2022/07/16 12:29:00;;;;;;;0.00;0.00;;;20.20;99.90;;;;;;4944441;29;20478;-92
2022/07/16 12:31:35;;;;;;;0.00;0.00;;;20.30;99.90;;;;;;4946825;29;20500;-92
2022/07/16 12:34:06;;;;;;;0.00;0.00;;;20.40;99.90;;;;;;4943849;29;20488;-92
2022/07/16 12:36:38;;;;;;;0.00;0.00;;;20.40;99.90;;;;;;4942833;29;20487;-92
2022/07/16 12:39:07;;;;;;;0.00;0.00;;;20.30;99.90;;;;;;4941495;29;20618;-92
2022/07/16 12:41:39;;;;;;;0.00;0.00;;;20.40;99.90;;;;;;4943267;29;20484;-90
2022/07/16 12:44:10;;;;;;;0.00;0.00;;;20.40;99.90;;;;;;4940370;29;20791;-89
2022/07/16 12:46:40;;;;;;;0.00;0.00;;;20.60;99.90;;;;;;4938861;29;20485;-91
2022/07/16 12:49:13;;;;;;;0.00;0.00;;;20.70;99.90;;;;;;4938484;29;20466;-89
2022/07/16 12:51:44;;;;;;;0.00;0.00;;;20.90;99.90;;;;;;4933416;29;20501;-90
2022/07/16 12:54:15;;;;;;;0.00;0.00;;;20.90;99.90;;;;;;4930303;29;20780;-90
2022/07/16 12:59:45;;;;;;;0.00;0.00;;;20.70;99.90;;;;;;4884267;29;20504;-90
2022/07/16 13:02:14;;;;;;;0.00;0.00;;;20.70;99.90;;;;;;4889380;29;20589;-90
2022/07/16 13:04:43;;;;;;;0.00;0.00;;;20.50;99.90;;;;;;4907124;29;20462;-89
2022/07/16 13:07:18;;;;;;;0.00;0.00;;;20.40;99.90;;;;;;4921074;29;20446;-90
2022/07/16 13:09:46;;;;;;;0.00;0.00;;;20.30;99.90;;;;;;4941408;29;20458;-90
2022/07/16 13:12:17;;;;;;;0.00;0.00;;;20.30;99.90;;;;;;4951513;29;20501;-89
2022/07/16 13:14:46;;;;;;;0.00;0.00;;;20.20;99.90;;;;;;4948086;29;20473;-91
2022/07/16 13:17:14;;;;;;;0.00;0.00;;;20.40;99.90;;;;;;4939226;29;20493;-91
2022/07/16 13:19:44;;;;;;;0.00;0.00;;;20.60;99.80;;;;;;4935701;29;20485;-90
2022/07/16 13:22:12;;;;;;;0.00;0.00;;;20.70;99.90;;;;;;4945826;29;20517;-89
2022/07/16 13:24:40;;;;;;;0.00;0.00;;;20.70;99.90;;;;;;4951701;28;20474;-92